Time;durP1;ratioP1;P1;durP2;ratioP2;P2;SDS_P1;SDS_P2;PMS_P1;PMS_P2;Temp;Humidity;BMP_temperature;BMP_pressure;BME280_temperature;BME280_humidity;BME280_pressure;Samples;Min_cycle;Max_cycle;Signal;HPM_P1;HPM_P2
2022/09/13 00:00:43;;;;;;;;;7.33;7.33;;;;;;;;6209775;22;45457;-93
2022/09/13 00:03:09;;;;;;;;;10.00;6.33;;;;;;;;6208967;22;48194;-93
2022/09/13 00:05:35;;;;;;;;;8.00;8.00;;;;;;;;6209840;22;45440;-93
2022/09/13 00:08:01;;;;;;;;;7.00;6.67;;;;;;;;6210385;22;45325;-92
2022/09/13 00:10:29;;;;;;;;;10.00;7.00;;;;;;;;6213062;22;45350;-93
2022/09/13 00:12:55;;;;;;;;;6.67;5.00;;;;;;;;6211189;22;47611;-93
2022/09/13 00:15:20;;;;;;;;;7.67;5.67;;;;;;;;6210557;22;45591;-93
2022/09/13 00:17:45;;;;;;;;;7.00;5.33;;;;;;;;6213167;22;45223;-94
2022/09/13 00:20:11;;;;;;;;;6.33;5.67;;;;;;;;6210631;22;45458;-93
2022/09/13 00:22:36;;;;;;;;;6.67;6.00;;;;;;;;6213288;22;46298;-94
2022/09/13 00:25:02;;;;;;;;;8.67;7.00;;;;;;;;6211540;22;45276;-93
2022/09/13 00:27:27;;;;;;;;;7.67;6.33;;;;;;;;6210972;22;45279;-93
2022/09/13 00:29:53;;;;;;;;;6.33;6.33;;;;;;;;6213277;22;45290;-93
2022/09/13 00:32:18;;;;;;;;;6.67;6.00;;;;;;;;6214533;22;47240;-92
2022/09/13 00:34:44;;;;;;;;;7.00;7.00;;;;;;;;6212864;22;45369;-94
2022/09/13 00:37:09;;;;;;;;;7.00;7.00;;;;;;;;6218363;22;45354;-93
2022/09/13 00:39:34;;;;;;;;;6.33;4.67;;;;;;;;6212261;22;45288;-93
2022/09/13 00:41:59;;;;;;;;;5.67;5.67;;;;;;;;6209622;22;47052;-93
2022/09/13 00:44:43;;;;;;;;;5.33;4.00;;;;;;;;6208930;22;45470;-93
2022/09/13 00:47:09;;;;;;;;;6.33;6.33;;;;;;;;6212107;22;45306;-93
2022/09/13 00:49:38;;;;;;;;;5.67;5.00;;;;;;;;6209081;22;45282;-92
2022/09/13 00:52:06;;;;;;;;;7.33;6.00;;;;;;;;6210173;22;47238;-93
2022/09/13 00:54:40;;;;;;;;;4.67;4.00;;;;;;;;6211813;22;45211;-92
2022/09/13 00:57:06;;;;;;;;;7.67;6.00;;;;;;;;6211931;22;45143;-92
2022/09/13 00:59:35;;;;;;;;;6.67;5.00;;;;;;;;6235262;22;45813;-93
2022/09/13 01:02:02;;;;;;;;;6.00;5.00;;;;;;;;6234734;22;47281;-93
2022/09/13 01:04:28;;;;;;;;;3.00;3.00;;;;;;;;6234792;22;45796;-92
2022/09/13 01:06:58;;;;;;;;;6.00;4.00;;;;;;;;6212117;22;45424;-93
2022/09/13 01:09:23;;;;;;;;;4.67;4.67;;;;;;;;6210002;22;45366;-92
2022/09/13 01:11:55;;;;;;;;;5.33;5.33;;;;;;;;6209835;22;46083;-92
2022/09/13 01:14:24;;;;;;;;;6.67;5.00;;;;;;;;6209559;22;45564;-92
2022/09/13 01:16:49;;;;;;;;;6.33;6.33;;;;;;;;6210201;22;45311;-92
2022/09/13 01:19:14;;;;;;;;;5.00;5.00;;;;;;;;6235229;22;45651;-93
2022/09/13 01:21:58;;;;;;;;;4.67;4.67;;;;;;;;6209650;22;47221;-92
2022/09/13 01:24:35;;;;;;;;;6.00;6.00;;;;;;;;6212108;22;45235;-92
2022/09/13 01:27:12;;;;;;;;;3.33;3.33;;;;;;;;6209677;22;45352;-93
2022/09/13 01:30:01;;;;;;;;;8.00;7.00;;;;;;;;6209346;22;45428;-93
2022/09/13 01:32:34;;;;;;;;;3.00;3.00;;;;;;;;6236181;22;48151;-93
2022/09/13 01:35:22;;;;;;;;;4.33;4.00;;;;;;;;6210279;22;45268;-93
2022/09/13 01:38:00;;;;;;;;;6.67;5.67;;;;;;;;6210835;22;45315;-93
2022/09/13 01:40:34;;;;;;;;;6.67;5.00;;;;;;;;6210098;22;45352;-93
2022/09/13 01:43:03;;;;;;;;;6.67;5.67;;;;;;;;6210121;22;48327;-93
2022/09/13 01:45:37;;;;;;;;;3.67;3.67;;;;;;;;6209349;22;45867;-93
2022/09/13 01:48:25;;;;;;;;;4.67;4.67;;;;;;;;6210050;22;45481;-93
2022/09/13 01:51:05;;;;;;;;;5.00;4.00;;;;;;;;6193820;22;45339;-93
2022/09/13 01:53:36;;;;;;;;;3.33;3.33;;;;;;;;6209917;22;48258;-93
2022/09/13 01:56:09;;;;;;;;;3.33;3.33;;;;;;;;6209918;22;45344;-93
2022/09/13 01:58:45;;;;;;;;;6.67;6.00;;;;;;;;6209623;22;45359;-92
2022/09/13 02:01:17;;;;;;;;;4.67;4.67;;;;;;;;6210007;22;45407;-93
2022/09/13 02:03:47;;;;;;;;;4.67;4.00;;;;;;;;6209658;22;47535;-93
2022/09/13 02:06:16;;;;;;;;;6.00;5.00;;;;;;;;6210053;22;45409;-93
2022/09/13 02:08:44;;;;;;;;;3.00;3.00;;;;;;;;6210216;22;45525;-93
2022/09/13 02:11:10;;;;;;;;;4.67;4.67;;;;;;;;6210015;22;45469;-93
2022/09/13 02:13:38;;;;;;;;;4.33;3.00;;;;;;;;6209032;22;48048;-93
2022/09/13 02:16:24;;;;;;;;;4.67;4.67;;;;;;;;6209635;22;45469;-93
2022/09/13 02:18:53;;;;;;;;;5.67;5.67;;;;;;;;6235678;22;45483;-92
2022/09/13 02:21:25;;;;;;;;;6.00;4.00;;;;;;;;6211545;22;45480;-92
2022/09/13 02:23:53;;;;;;;;;6.33;4.67;;;;;;;;6212280;22;47214;-92
2022/09/13 02:26:20;;;;;;;;;4.67;4.67;;;;;;;;6212274;22;45525;-93
2022/09/13 02:28:51;;;;;;;;;5.00;3.00;;;;;;;;6211908;22;45405;-91
2022/09/13 02:31:20;;;;;;;;;3.33;3.33;;;;;;;;6210629;22;45377;-92
2022/09/13 02:33:50;;;;;;;;;4.67;4.00;;;;;;;;6210036;22;47998;-93
2022/09/13 02:36:22;;;;;;;;;6.00;4.00;;;;;;;;6210188;22;45950;-93
2022/09/13 02:38:51;;;;;;;;;4.00;4.00;;;;;;;;6210296;22;45518;-93
2022/09/13 02:41:16;;;;;;;;;5.33;4.00;;;;;;;;6209744;22;45633;-93
2022/09/13 02:43:44;;;;;;;;;4.67;3.00;;;;;;;;6210283;22;46855;-94
2022/09/13 02:46:22;;;;;;;;;3.67;3.67;;;;;;;;6209992;22;45659;-94
2022/09/13 02:49:00;;;;;;;;;3.00;3.00;;;;;;;;6209477;22;45503;-94
2022/09/13 02:51:41;;;;;;;;;4.00;4.00;;;;;;;;6210325;22;45505;-93
2022/09/13 02:54:13;;;;;;;;;4.33;4.33;;;;;;;;6235499;22;46999;-93
2022/09/13 02:56:42;;;;;;;;;5.00;3.67;;;;;;;;6209232;22;45792;-93
2022/09/13 02:59:15;;;;;;;;;3.33;3.33;;;;;;;;6209924;22;45768;-94
2022/09/13 03:01:44;;;;;;;;;3.00;3.00;;;;;;;;6211637;22;45261;-93
2022/09/13 03:04:09;;;;;;;;;5.00;2.67;;;;;;;;6209299;22;46793;-93
2022/09/13 03:06:35;;;;;;;;;3.67;3.00;;;;;;;;6209938;22;45414;-93
2022/09/13 03:09:03;;;;;;;;;3.67;3.67;;;;;;;;6235735;22;45397;-92
2022/09/13 03:11:52;;;;;;;;;5.00;5.00;;;;;;;;6208563;22;45462;-93
2022/09/13 03:14:17;;;;;;;;;2.33;2.33;;;;;;;;6192671;22;47884;-93
2022/09/13 03:16:43;;;;;;;;;4.00;3.00;;;;;;;;6209724;22;45228;-93
2022/09/13 03:19:35;;;;;;;;;4.00;2.67;;;;;;;;6209892;22;45332;-94
2022/09/13 03:22:19;;;;;;;;;2.33;2.33;;;;;;;;6209976;22;45389;-93
2022/09/13 03:24:51;;;;;;;;;4.67;2.00;;;;;;;;6210156;22;47389;-93
2022/09/13 03:27:30;;;;;;;;;3.67;3.67;;;;;;;;6210344;22;45496;-93
2022/09/13 03:30:04;;;;;;;;;2.00;2.00;;;;;;;;6211064;22;45371;-93
2022/09/13 03:32:44;;;;;;;;;4.00;3.00;;;;;;;;6211258;22;45523;-93
2022/09/13 03:35:09;;;;;;;;;4.67;4.67;;;;;;;;6210702;22;48319;-93
2022/09/13 03:37:35;;;;;;;;;2.33;1.67;;;;;;;;6210785;22;45413;-93
2022/09/13 03:40:13;;;;;;;;;3.00;3.00;;;;;;;;6210826;22;45435;-93
2022/09/13 03:42:44;;;;;;;;;3.33;3.33;;;;;;;;6211196;22;45484;-93
2022/09/13 03:45:11;;;;;;;;;3.00;3.00;;;;;;;;6210633;22;47907;-93
2022/09/13 03:47:39;;;;;;;;;2.00;2.00;;;;;;;;6211310;22;46028;-93
2022/09/13 03:50:06;;;;;;;;;3.00;3.00;;;;;;;;6236446;22;45366;-94
2022/09/13 03:52:32;;;;;;;;;1.33;1.33;;;;;;;;6211355;22;45314;-94
2022/09/13 03:54:57;;;;;;;;;2.33;2.33;;;;;;;;6212308;22;45325;-94
2022/09/13 03:57:23;;;;;;;;;4.00;3.00;;;;;;;;6211104;22;45420;-94
2022/09/13 03:59:51;;;;;;;;;4.00;4.00;;;;;;;;6210141;22;45276;-94
2022/09/13 04:02:17;;;;;;;;;3.33;3.00;;;;;;;;6211459;22;45354;-93
2022/09/13 04:04:43;;;;;;;;;3.00;2.33;;;;;;;;6210932;22;48341;-95
2022/09/13 04:07:10;;;;;;;;;3.00;3.00;;;;;;;;6210591;22;45298;-94
2022/09/13 04:09:35;;;;;;;;;2.67;2.67;;;;;;;;6212061;22;45269;-94
2022/09/13 04:12:01;;;;;;;;;4.00;4.00;;;;;;;;6210893;22;45332;-93
2022/09/13 04:14:29;;;;;;;;;3.33;3.33;;;;;;;;6210779;22;47186;-91
2022/09/13 04:16:55;;;;;;;;;3.67;2.33;;;;;;;;6211158;22;45458;-94
2022/09/13 04:19:21;;;;;;;;;2.33;2.33;;;;;;;;6212652;22;45435;-92
2022/09/13 04:21:50;;;;;;;;;3.00;3.00;;;;;;;;6212678;22;45529;-94
2022/09/13 04:24:17;;;;;;;;;3.33;3.33;;;;;;;;6211647;22;47461;-94
2022/09/13 04:26:43;;;;;;;;;4.33;2.00;;;;;;;;6210781;22;45389;-93
2022/09/13 04:29:08;;;;;;;;;2.67;2.67;;;;;;;;6210529;22;45442;-93
2022/09/13 04:31:33;;;;;;;;;3.00;3.00;;;;;;;;6210232;22;45375;-94
2022/09/13 04:33:59;;;;;;;;;2.00;2.00;;;;;;;;6210776;22;48031;-94
2022/09/13 04:36:24;;;;;;;;;2.33;2.00;;;;;;;;6209785;22;45341;-93
2022/09/13 04:38:49;;;;;;;;;2.33;1.33;;;;;;;;6211098;22;45283;-93
2022/09/13 04:41:15;;;;;;;;;2.33;2.33;;;;;;;;6212391;22;45250;-94
2022/09/13 04:43:40;;;;;;;;;2.00;2.00;;;;;;;;6210855;22;48149;-94
2022/09/13 04:46:05;;;;;;;;;3.00;2.33;;;;;;;;6210799;22;45420;-94
2022/09/13 04:48:30;;;;;;;;;1.67;1.33;;;;;;;;6211272;22;45381;-94
2022/09/13 04:51:03;;;;;;;;;3.00;3.00;;;;;;;;6236045;22;45314;-93
2022/09/13 04:53:28;;;;;;;;;3.00;3.00;;;;;;;;6210299;22;47525;-94
2022/09/13 04:55:58;;;;;;;;;2.67;2.67;;;;;;;;6209727;22;45647;-93
2022/09/13 04:58:24;;;;;;;;;3.00;3.00;;;;;;;;6235878;22;45326;-93
2022/09/13 05:00:50;;;;;;;;;3.33;3.33;;;;;;;;6209140;22;45303;-93
2022/09/13 05:03:15;;;;;;;;;7.00;5.00;;;;;;;;6210228;22;48467;-93
2022/09/13 05:05:40;;;;;;;;;7.33;6.00;;;;;;;;6210222;22;45476;-94
2022/09/13 05:08:05;;;;;;;;;8.00;5.67;;;;;;;;6210017;22;45432;-93
2022/09/13 05:10:31;;;;;;;;;9.00;6.00;;;;;;;;6209873;22;45304;-93
2022/09/13 05:12:56;;;;;;;;;5.33;5.00;;;;;;;;6210140;22;47395;-94
2022/09/13 05:15:21;;;;;;;;;6.00;5.00;;;;;;;;6209952;22;45420;-92
2022/09/13 05:17:46;;;;;;;;;5.33;4.33;;;;;;;;6210419;22;45211;-94
2022/09/13 05:20:11;;;;;;;;;4.33;3.67;;;;;;;;6209933;22;45240;-94
2022/09/13 05:22:37;;;;;;;;;6.00;5.67;;;;;;;;6235537;22;47962;-93
2022/09/13 05:25:02;;;;;;;;;6.00;6.00;;;;;;;;6212402;22;45237;-93
2022/09/13 05:27:27;;;;;;;;;7.00;5.67;;;;;;;;6209779;22;45291;-94
2022/09/13 05:29:52;;;;;;;;;4.33;4.33;;;;;;;;6210525;22;45469;-93
2022/09/13 05:32:18;;;;;;;;;4.33;4.33;;;;;;;;6212064;22;46287;-94
2022/09/13 05:34:49;;;;;;;;;6.00;6.00;;;;;;;;6223932;22;45287;-93
2022/09/13 05:37:17;;;;;;;;;6.00;5.00;;;;;;;;6194896;23;45473;-95
2022/09/13 05:39:43;;;;;;;;;6.33;5.33;;;;;;;;6183688;23;45221;-95
2022/09/13 05:42:08;;;;;;;;;4.00;4.00;;;;;;;;6208877;22;48072;-95
2022/09/13 05:44:33;;;;;;;;;4.00;4.00;;;;;;;;6206660;22;45323;-95
2022/09/13 05:50:17;;;;;;;;;5.00;5.00;;;;;;;;6089919;22;45604;-96
2022/09/13 05:52:42;;;;;;;;;4.67;4.67;;;;;;;;6186294;22;47953;-94
2022/09/13 05:55:08;;;;;;;;;5.67;4.67;;;;;;;;6185830;22;45358;-94
2022/09/13 05:57:35;;;;;;;;;4.00;4.00;;;;;;;;6186680;22;45663;-94
2022/09/13 06:00:00;;;;;;;;;5.67;5.67;;;;;;;;6186025;22;45438;-95
2022/09/13 06:02:25;;;;;;;;;8.00;7.00;;;;;;;;6186756;22;47598;-94
2022/09/13 06:04:51;;;;;;;;;7.00;5.00;;;;;;;;6189438;22;45700;-94
2022/09/13 06:07:16;;;;;;;;;5.00;5.00;;;;;;;;6193034;22;45375;-94
2022/09/13 06:09:41;;;;;;;;;6.00;4.33;;;;;;;;6191544;22;45182;-94
2022/09/13 06:12:07;;;;;;;;;5.67;4.67;;;;;;;;6190527;22;47859;-94
2022/09/13 06:14:32;;;;;;;;;5.00;4.67;;;;;;;;6186834;22;45976;-93
2022/09/13 06:16:57;;;;;;;;;6.00;5.00;;;;;;;;6188027;22;45419;-93
2022/09/13 06:19:22;;;;;;;;;6.00;4.00;;;;;;;;6186628;22;45402;-94
2022/09/13 06:21:48;;;;;;;;;4.33;4.33;;;;;;;;6187523;22;46946;-94
2022/09/13 06:24:13;;;;;;;;;4.00;3.67;;;;;;;;6186463;22;45410;-95
2022/09/13 06:26:38;;;;;;;;;4.00;4.00;;;;;;;;6185829;22;45227;-88
2022/09/13 06:29:04;;;;;;;;;5.33;4.67;;;;;;;;6212034;22;45324;-86
2022/09/13 06:31:29;;;;;;;;;3.00;3.00;;;;;;;;6210492;22;46061;-86
2022/09/13 06:33:59;;;;;;;;;6.00;6.00;;;;;;;;6210755;22;45664;-85
2022/09/13 06:36:24;;;;;;;;;7.33;6.00;;;;;;;;6211471;22;45336;-87
2022/09/13 06:38:49;;;;;;;;;7.00;5.33;;;;;;;;6211564;22;45251;-91
2022/09/13 06:41:17;;;;;;;;;7.00;7.00;;;;;;;;6210291;22;46229;-89
2022/09/13 06:43:43;;;;;;;;;4.67;4.67;;;;;;;;6210945;22;45343;-89
2022/09/13 06:46:10;;;;;;;;;6.00;6.00;;;;;;;;6210720;22;45264;-90
2022/09/13 06:48:36;;;;;;;;;7.33;5.33;;;;;;;;6210490;22;45313;-89
2022/09/13 06:51:03;;;;;;;;;5.33;4.00;;;;;;;;6210216;22;46665;-90
2022/09/13 06:53:28;;;;;;;;;8.33;6.00;;;;;;;;6184073;22;45845;-94
2022/09/13 06:56:07;;;;;;;;;6.33;5.67;;;;;;;;6180880;22;45702;-88
2022/09/13 06:58:33;;;;;;;;;7.00;5.67;;;;;;;;6182945;22;45318;-88
2022/09/13 07:01:10;;;;;;;;;7.00;7.00;;;;;;;;6181667;22;47070;-88
2022/09/13 07:03:40;;;;;;;;;7.00;5.33;;;;;;;;6182124;22;45388;-88
2022/09/13 07:06:06;;;;;;;;;5.00;5.00;;;;;;;;6182934;22;45348;-87
2022/09/13 07:08:33;;;;;;;;;4.67;4.67;;;;;;;;6210548;22;45415;-87
2022/09/13 07:10:58;;;;;;;;;4.00;3.33;;;;;;;;6210114;22;46087;-88
2022/09/13 07:13:23;;;;;;;;;6.67;5.33;;;;;;;;6182291;22;45334;-88
2022/09/13 07:15:48;;;;;;;;;5.00;4.00;;;;;;;;6182479;22;45237;-88
2022/09/13 07:18:14;;;;;;;;;4.33;3.33;;;;;;;;6182627;22;45439;-87
2022/09/13 07:20:39;;;;;;;;;5.67;4.00;;;;;;;;6210068;22;46573;-89
2022/09/13 07:23:04;;;;;;;;;4.00;2.67;;;;;;;;6182990;22;45656;-88
2022/09/13 07:25:29;;;;;;;;;3.33;3.00;;;;;;;;6181256;22;45276;-88
2022/09/13 07:27:54;;;;;;;;;2.67;2.67;;;;;;;;6181897;22;45264;-88
2022/09/13 07:30:19;;;;;;;;;3.67;3.67;;;;;;;;6208664;22;47578;-89
2022/09/13 07:32:44;;;;;;;;;4.67;4.00;;;;;;;;6209334;22;45351;-88
2022/09/13 07:35:10;;;;;;;;;5.00;4.67;;;;;;;;6211477;22;45290;-87
2022/09/13 07:37:35;;;;;;;;;4.00;4.00;;;;;;;;6214252;22;45191;-88
2022/09/13 07:40:01;;;;;;;;;5.33;4.00;;;;;;;;6212079;22;46216;-91
2022/09/13 07:42:26;;;;;;;;;4.67;3.00;;;;;;;;6213545;22;45340;-89
2022/09/13 07:44:51;;;;;;;;;5.00;5.00;;;;;;;;6187237;22;45298;-90
2022/09/13 07:47:16;;;;;;;;;3.33;3.33;;;;;;;;6215490;22;45458;-92
2022/09/13 07:49:42;;;;;;;;;4.67;4.67;;;;;;;;6217308;22;46347;-93
2022/09/13 07:52:07;;;;;;;;;3.00;3.00;;;;;;;;6191892;22;45357;-91
2022/09/13 07:54:34;;;;;;;;;4.33;4.33;;;;;;;;6218957;22;45402;-90
2022/09/13 07:56:59;;;;;;;;;4.00;4.00;;;;;;;;6192006;22;45367;-92
2022/09/13 07:59:24;;;;;;;;;4.33;4.33;;;;;;;;6194126;22;47024;-94
2022/09/13 08:01:50;;;;;;;;;5.00;3.00;;;;;;;;6198521;22;45894;-96
2022/09/13 08:04:17;;;;;;;;;3.00;2.00;;;;;;;;6219894;22;45223;-96
2022/09/13 08:06:43;;;;;;;;;2.67;2.67;;;;;;;;6213490;22;45315;-94
2022/09/13 08:09:08;;;;;;;;;4.00;4.00;;;;;;;;6211309;22;46089;-94
2022/09/13 08:11:35;;;;;;;;;3.00;3.00;;;;;;;;6210680;22;45396;-93
2022/09/13 08:14:01;;;;;;;;;3.67;3.67;;;;;;;;6211010;22;45371;-93
2022/09/13 08:16:26;;;;;;;;;4.00;4.00;;;;;;;;6184264;22;45450;-91
2022/09/13 08:18:53;;;;;;;;;5.67;5.67;;;;;;;;6183881;22;48173;-91
2022/09/13 08:21:18;;;;;;;;;4.00;3.00;;;;;;;;6212385;22;45235;-91
2022/09/13 08:23:44;;;;;;;;;4.00;4.00;;;;;;;;6184772;22;45283;-91
2022/09/13 08:26:09;;;;;;;;;3.67;3.00;;;;;;;;6183358;22;45598;-89
2022/09/13 08:28:35;;;;;;;;;6.00;4.33;;;;;;;;6183455;22;47175;-89
2022/09/13 08:31:04;;;;;;;;;5.00;4.00;;;;;;;;6211568;22;45346;-94
2022/09/13 08:33:30;;;;;;;;;6.00;4.33;;;;;;;;6183299;22;45445;-95
2022/09/13 08:35:57;;;;;;;;;7.33;6.33;;;;;;;;6212494;22;45296;-89
2022/09/13 08:38:22;;;;;;;;;5.00;5.00;;;;;;;;6211113;22;45377;-90
2022/09/13 08:40:49;;;;;;;;;7.67;6.33;;;;;;;;6183508;22;45342;-89
2022/09/13 08:43:17;;;;;;;;;6.33;6.33;;;;;;;;6208147;22;45433;-89
2022/09/13 08:45:48;;;;;;;;;6.33;5.00;;;;;;;;6206150;22;45403;-89
2022/09/13 08:48:15;;;;;;;;;5.33;4.00;;;;;;;;6182201;22;48223;-90
2022/09/13 08:50:43;;;;;;;;;5.33;5.33;;;;;;;;6209932;22;45630;-93
2022/09/13 08:53:23;;;;;;;;;5.00;5.00;;;;;;;;6184686;22;45368;-86
2022/09/13 08:56:05;;;;;;;;;5.00;4.00;;;;;;;;6183275;22;45369;-90
2022/09/13 08:58:43;;;;;;;;;5.00;5.00;;;;;;;;6182573;22;47292;-88
2022/09/13 09:01:19;;;;;;;;;5.00;4.00;;;;;;;;6209557;22;45412;-87
2022/09/13 09:04:03;;;;;;;;;4.33;4.00;;;;;;;;6182920;22;45304;-89
2022/09/13 09:06:28;;;;;;;;;4.33;4.33;;;;;;;;6210286;22;45428;-88
2022/09/13 09:09:15;;;;;;;;;7.00;5.00;;;;;;;;6183095;22;48354;-90
2022/09/13 09:11:48;;;;;;;;;3.00;2.67;;;;;;;;6182527;22;45827;-89
2022/09/13 09:14:22;;;;;;;;;4.33;4.33;;;;;;;;6185761;22;45853;-94
2022/09/13 09:16:57;;;;;;;;;3.00;3.00;;;;;;;;6195344;22;44746;-96
2022/09/13 09:19:33;;;;;;;;;2.33;2.33;;;;;;;;6193801;22;47406;-94
2022/09/13 09:22:03;;;;;;;;;2.67;1.67;;;;;;;;6192000;22;45797;-93
2022/09/13 09:24:32;;;;;;;;;3.00;2.67;;;;;;;;6189461;22;45647;-94
2022/09/13 09:27:13;;;;;;;;;4.33;3.00;;;;;;;;6187858;22;45335;-88
2022/09/13 09:29:42;;;;;;;;;3.00;3.00;;;;;;;;6212220;22;45341;-91
2022/09/13 09:32:17;;;;;;;;;5.67;3.00;;;;;;;;6216827;22;45317;-88
2022/09/13 09:34:58;;;;;;;;;2.67;2.67;;;;;;;;6207999;22;45307;-87
2022/09/13 09:37:24;;;;;;;;;4.00;2.00;;;;;;;;6211517;22;45405;-86
2022/09/13 09:39:51;;;;;;;;;3.00;3.00;;;;;;;;6216532;22;45283;-88
2022/09/13 09:42:20;;;;;;;;;2.33;2.33;;;;;;;;6185241;22;46157;-87
2022/09/13 09:44:47;;;;;;;;;3.00;2.33;;;;;;;;6217013;22;45410;-88
2022/09/13 09:47:23;;;;;;;;;3.33;3.33;;;;;;;;6216600;22;45427;-91
2022/09/13 09:52:39;;;;;;;;;4.00;3.00;;;;;;;;6209890;22;45244;-85
2022/09/13 09:55:15;;;;;;;;;1.33;1.00;;;;;;;;6209708;22;45288;-86
2022/09/13 09:58:17;;;;;;;;;1.67;1.00;;;;;;;;6182145;22;45662;-85
2022/09/13 10:00:52;;;;;;;;;3.67;2.33;;;;;;;;6086357;23;45596;-86
2022/09/13 10:03:18;;;;;;;;;4.00;3.00;;;;;;;;6086746;23;45340;-85
2022/09/13 10:05:44;;;;;;;;;5.33;5.00;;;;;;;;6087500;23;45284;-85
2022/09/13 10:08:25;;;;;;;;;3.00;2.67;;;;;;;;6086229;23;45599;-87
2022/09/13 10:10:56;;;;;;;;;2.00;2.00;;;;;;;;6086431;23;45829;-91
2022/09/13 10:13:22;;;;;;;;;2.33;2.33;;;;;;;;6074125;23;45315;-89
2022/09/13 10:16:24;;;;;;;;;3.67;2.00;;;;;;;;6089990;23;45572;-94
2022/09/13 10:18:49;;;;;;;;;3.00;3.00;;;;;;;;6085189;23;45418;-89
2022/09/13 10:21:17;;;;;;;;;5.00;3.33;;;;;;;;6066244;23;47670;-95
2022/09/13 10:23:43;;;;;;;;;9.00;7.33;;;;;;;;6062698;23;45478;-90
2022/09/13 10:26:13;;;;;;;;;7.00;4.67;;;;;;;;6059564;23;45327;-84
2022/09/13 10:28:44;;;;;;;;;4.00;4.00;;;;;;;;6082203;23;45422;-84
2022/09/13 10:31:14;;;;;;;;;12.33;12.33;;;;;;;;6058202;23;47429;-85
2022/09/13 10:33:59;;;;;;;;;9.67;8.33;;;;;;;;6059471;23;45397;-85
2022/09/13 10:36:27;;;;;;;;;15.67;13.00;;;;;;;;6152918;22;45397;-85
2022/09/13 10:39:16;;;;;;;;;8.33;5.00;;;;;;;;6181062;22;45500;-86
2022/09/13 10:41:42;;;;;;;;;7.67;6.67;;;;;;;;6207597;22;46189;-88
2022/09/13 10:44:21;;;;;;;;;7.00;6.00;;;;;;;;6209682;22;45338;-90
2022/09/13 10:46:47;;;;;;;;;7.00;7.00;;;;;;;;6207803;22;45707;-87
2022/09/13 10:49:32;;;;;;;;;7.00;5.00;;;;;;;;6208040;22;45551;-86
2022/09/13 10:51:57;;;;;;;;;7.00;5.00;;;;;;;;6206278;22;46434;-89
2022/09/13 10:54:22;;;;;;;;;5.00;4.00;;;;;;;;6185154;22;45361;-94
2022/09/13 10:56:49;;;;;;;;;6.33;5.00;;;;;;;;6207903;22;45300;-88
2022/09/13 10:59:17;;;;;;;;;6.33;6.33;;;;;;;;6200370;22;45529;-90
2022/09/13 11:01:46;;;;;;;;;5.00;4.00;;;;;;;;6208380;22;45385;-90
2022/09/13 11:04:30;;;;;;;;;5.00;5.00;;;;;;;;6207559;22;45642;-91
2022/09/13 11:06:55;;;;;;;;;2.33;2.33;;;;;;;;6207765;22;45451;-91
2022/09/13 11:09:32;;;;;;;;;5.00;3.67;;;;;;;;6179842;22;45317;-90
2022/09/13 11:12:03;;;;;;;;;5.00;5.00;;;;;;;;6206223;22;47032;-89
2022/09/13 11:14:47;;;;;;;;;3.00;3.00;;;;;;;;6210899;22;45394;-90
2022/09/13 11:17:31;;;;;;;;;5.67;5.00;;;;;;;;6210384;22;45797;-89
2022/09/13 11:20:02;;;;;;;;;5.00;5.00;;;;;;;;6212132;22;45372;-91
2022/09/13 11:22:40;;;;;;;;;4.00;3.33;;;;;;;;6208866;22;45315;-91
2022/09/13 11:25:16;;;;;;;;;5.00;4.00;;;;;;;;6201929;22;45347;-90
2022/09/13 11:27:50;;;;;;;;;3.00;2.00;;;;;;;;6215901;22;45680;-88
2022/09/13 11:30:24;;;;;;;;;3.67;3.67;;;;;;;;6216426;22;45592;-89
2022/09/13 11:33:08;;;;;;;;;3.33;3.33;;;;;;;;6216690;22;45299;-88
2022/09/13 11:35:42;;;;;;;;;2.00;2.00;;;;;;;;6217371;22;45498;-89
2022/09/13 11:38:32;;;;;;;;;3.00;3.00;;;;;;;;6181360;22;45317;-89
2022/09/13 11:40:58;;;;;;;;;3.67;3.67;;;;;;;;6210838;22;45573;-90
2022/09/13 11:43:26;;;;;;;;;4.33;4.33;;;;;;;;6188434;22;46005;-90
2022/09/13 11:46:10;;;;;;;;;2.67;1.67;;;;;;;;6209156;22;45270;-91
2022/09/13 11:48:51;;;;;;;;;3.67;3.67;;;;;;;;6177909;22;45392;-90
2022/09/13 11:51:42;;;;;;;;;4.00;4.00;;;;;;;;6182314;22;45687;-90
2022/09/13 11:54:25;;;;;;;;;3.33;3.33;;;;;;;;6210078;22;45415;-90
2022/09/13 11:56:54;;;;;;;;;3.67;3.00;;;;;;;;6181464;22;45425;-89
2022/09/13 11:59:33;;;;;;;;;3.00;3.00;;;;;;;;6204263;22;45709;-90
2022/09/13 12:02:00;;;;;;;;;3.00;3.00;;;;;;;;6176495;22;45567;-90
2022/09/13 12:04:38;;;;;;;;;2.00;2.00;;;;;;;;6181004;22;47049;-90
2022/09/13 12:07:08;;;;;;;;;3.00;2.67;;;;;;;;6180719;22;45732;-90
2022/09/13 12:09:36;;;;;;;;;2.67;2.00;;;;;;;;6209089;22;45643;-90
2022/09/13 12:12:06;;;;;;;;;3.00;2.67;;;;;;;;6181688;22;45428;-91
2022/09/13 12:14:39;;;;;;;;;3.00;3.00;;;;;;;;6182070;22;48175;-90
2022/09/13 12:17:11;;;;;;;;;2.00;2.00;;;;;;;;6181124;22;46238;-90
2022/09/13 12:19:44;;;;;;;;;4.33;4.33;;;;;;;;6182712;22;45355;-90
2022/09/13 12:22:11;;;;;;;;;4.33;3.33;;;;;;;;6206807;22;45354;-89
2022/09/13 12:24:45;;;;;;;;;2.00;2.00;;;;;;;;6209535;22;45437;-90
2022/09/13 12:27:26;;;;;;;;;1.00;1.00;;;;;;;;6207075;22;45515;-90
2022/09/13 12:30:10;;;;;;;;;2.67;2.67;;;;;;;;6210373;22;45434;-91
2022/09/13 12:32:37;;;;;;;;;3.00;3.00;;;;;;;;6210054;22;45390;-90
2022/09/13 12:35:05;;;;;;;;;4.33;4.00;;;;;;;;6180384;22;48086;-90
2022/09/13 12:37:44;;;;;;;;;3.67;3.00;;;;;;;;6208306;22;45611;-90
2022/09/13 12:40:10;;;;;;;;;3.00;3.00;;;;;;;;6182681;22;45292;-91
2022/09/13 12:42:54;;;;;;;;;3.00;3.00;;;;;;;;6209741;22;45323;-90
2022/09/13 12:45:22;;;;;;;;;5.00;3.00;;;;;;;;6182124;22;48637;-91
2022/09/13 12:47:55;;;;;;;;;7.00;4.00;;;;;;;;6180948;22;45465;-91
2022/09/13 12:50:30;;;;;;;;;4.00;3.00;;;;;;;;6180754;22;45643;-90
2022/09/13 12:52:55;;;;;;;;;4.00;4.00;;;;;;;;6210761;22;45405;-89
2022/09/13 12:55:29;;;;;;;;;4.25;3.00;;;;;;;;6210605;22;45474;-91
2022/09/13 12:58:02;;;;;;;;;3.00;3.00;;;;;;;;6211044;22;45314;-90
2022/09/13 13:00:29;;;;;;;;;4.67;3.67;;;;;;;;6214289;22;45293;-90
2022/09/13 13:03:11;;;;;;;;;4.67;4.67;;;;;;;;6220187;22;45287;-90
2022/09/13 13:05:40;;;;;;;;;2.67;2.67;;;;;;;;6191910;22;47103;-91
2022/09/13 13:08:16;;;;;;;;;2.00;2.00;;;;;;;;6220679;22;45292;-90
2022/09/13 13:10:41;;;;;;;;;3.00;3.00;;;;;;;;6193058;22;45291;-90
2022/09/13 13:13:11;;;;;;;;;3.00;3.00;;;;;;;;6191432;22;45259;-91
2022/09/13 13:15:54;;;;;;;;;2.67;2.67;;;;;;;;6190573;22;47424;-90
2022/09/13 13:18:42;;;;;;;;;3.00;3.00;;;;;;;;6191455;22;45375;-91
2022/09/13 13:21:20;;;;;;;;;2.00;2.00;;;;;;;;6200962;22;45306;-90
2022/09/13 13:23:46;;;;;;;;;3.33;2.00;;;;;;;;6215213;22;45354;-90
2022/09/13 13:26:20;;;;;;;;;3.00;3.00;;;;;;;;6212704;22;45216;-91
2022/09/13 13:28:46;;;;;;;;;3.00;3.00;;;;;;;;6208361;22;45369;-91
2022/09/13 13:31:23;;;;;;;;;2.33;2.33;;;;;;;;6182619;22;45735;-90
2022/09/13 13:33:50;;;;;;;;;5.00;4.00;;;;;;;;6181989;22;45275;-91
2022/09/13 13:36:23;;;;;;;;;3.00;2.67;;;;;;;;6183735;22;48386;-88
2022/09/13 13:38:52;;;;;;;;;4.00;4.00;;;;;;;;6182154;22;46127;-90
2022/09/13 13:41:32;;;;;;;;;4.00;2.33;;;;;;;;6210412;22;45605;-89
2022/09/13 13:44:18;;;;;;;;;4.00;3.67;;;;;;;;6181665;22;45851;-90
2022/09/13 13:46:43;;;;;;;;;4.33;4.33;;;;;;;;6208251;22;45608;-89
2022/09/13 13:49:27;;;;;;;;;4.00;4.00;;;;;;;;6176924;22;45946;-88
2022/09/13 13:52:05;;;;;;;;;3.00;3.00;;;;;;;;6207617;22;45358;-88
2022/09/13 13:54:50;;;;;;;;;4.00;4.00;;;;;;;;6209636;22;45688;-89
2022/09/13 13:57:21;;;;;;;;;4.00;3.00;;;;;;;;6180698;22;48378;-87
2022/09/13 13:59:49;;;;;;;;;3.67;2.67;;;;;;;;6209189;22;45534;-88
2022/09/13 14:02:17;;;;;;;;;2.33;2.33;;;;;;;;6181821;22;45394;-88
2022/09/13 14:04:46;;;;;;;;;2.00;2.00;;;;;;;;6209039;22;45355;-88
2022/09/13 14:07:13;;;;;;;;;3.00;3.00;;;;;;;;6203793;22;45685;-90
2022/09/13 14:09:48;;;;;;;;;3.67;3.67;;;;;;;;6209296;22;45358;-90
2022/09/13 14:12:13;;;;;;;;;5.00;5.00;;;;;;;;6209494;22;45330;-90
2022/09/13 14:14:38;;;;;;;;;3.00;3.00;;;;;;;;6209782;22;45407;-90
2022/09/13 14:17:09;;;;;;;;;2.25;2.25;;;;;;;;6181253;22;48135;-89
2022/09/13 14:19:58;;;;;;;;;3.00;3.00;;;;;;;;6181723;22;45485;-90
2022/09/13 14:22:24;;;;;;;;;3.00;3.00;;;;;;;;6182360;22;45476;-90
2022/09/13 14:25:12;;;;;;;;;4.67;4.67;;;;;;;;6181654;22;45328;-90
2022/09/13 14:27:39;;;;;;;;;3.00;3.00;;;;;;;;6190362;22;47558;-90
2022/09/13 14:30:16;;;;;;;;;5.00;4.67;;;;;;;;6208641;22;45504;-92
2022/09/13 14:32:43;;;;;;;;;3.33;3.00;;;;;;;;6182631;22;45268;-90
2022/09/13 14:35:27;;;;;;;;;3.67;3.67;;;;;;;;6182165;22;45475;-88
2022/09/13 14:37:53;;;;;;;;;5.67;4.67;;;;;;;;6182510;22;47042;-90
2022/09/13 14:40:18;;;;;;;;;4.00;4.00;;;;;;;;6182617;22;45909;-90
2022/09/13 14:42:47;;;;;;;;;3.00;3.00;;;;;;;;6209979;22;45450;-90
2022/09/13 14:45:24;;;;;;;;;4.33;4.33;;;;;;;;6208313;22;45341;-89
2022/09/13 14:47:50;;;;;;;;;5.00;5.00;;;;;;;;6209345;22;46833;-90
2022/09/13 14:50:17;;;;;;;;;2.67;2.67;;;;;;;;6209642;22;45228;-91
2022/09/13 14:52:48;;;;;;;;;4.00;2.67;;;;;;;;6184629;22;45391;-91
2022/09/13 14:55:24;;;;;;;;;4.00;4.00;;;;;;;;6191474;22;45279;-90
2022/09/13 14:57:52;;;;;;;;;4.00;4.00;;;;;;;;6220340;22;46500;-90
2022/09/13 15:00:17;;;;;;;;;3.00;3.00;;;;;;;;6192597;22;45380;-91
2022/09/13 15:02:47;;;;;;;;;4.00;3.67;;;;;;;;6192551;22;45384;-91
2022/09/13 15:05:13;;;;;;;;;3.33;3.00;;;;;;;;6220928;22;45288;-91
2022/09/13 15:07:39;;;;;;;;;3.67;3.67;;;;;;;;6192845;22;48105;-91